sensor_id;sensor_type;location;lat;lon;timestamp;temperature;humidity
21918;DHT22;11123;49.882;8.662;2022-08-19T00:02:01;21.50;99.90
21918;DHT22;11123;49.882;8.662;2022-08-19T00:04:32;21.50;99.90
21918;DHT22;11123;49.882;8.662;2022-08-19T00:07:03;21.60;99.90
21918;DHT22;11123;49.882;8.662;2022-08-19T00:09:32;21.50;99.90
21918;DHT22;11123;49.882;8.662;2022-08-19T00:12:01;21.50;99.90
21918;DHT22;11123;49.882;8.662;2022-08-19T00:14:31;21.50;99.90
21918;DHT22;11123;49.882;8.662;2022-08-19T00:17:00;21.50;99.90
21918;DHT22;11123;49.882;8.662;2022-08-19T00:19:29;21.60;99.90
21918;DHT22;11123;49.882;8.662;2022-08-19T00:21:58;21.60;99.90
21918;DHT22;11123;49.882;8.662;2022-08-19T00:24:26;21.60;99.90
21918;DHT22;11123;49.882;8.662;2022-08-19T00:26:56;21.60;99.90
21918;DHT22;11123;49.882;8.662;2022-08-19T00:29:45;21.60;99.90
21918;DHT22;11123;49.882;8.662;2022-08-19T00:32:18;21.50;99.90
21918;DHT22;11123;49.882;8.662;2022-08-19T00:34:47;21.50;99.90
21918;DHT22;11123;49.882;8.662;2022-08-19T00:37:15;21.50;99.90
21918;DHT22;11123;49.882;8.662;2022-08-19T00:39:43;21.50;99.90
21918;DHT22;11123;49.882;8.662;2022-08-19T00:42:14;21.50;99.90
21918;DHT22;11123;49.882;8.662;2022-08-19T00:44:44;21.40;99.90
21918;DHT22;11123;49.882;8.662;2022-08-19T00:47:13;21.40;99.90
21918;DHT22;11123;49.882;8.662;2022-08-19T00:49:45;21.40;99.90
21918;DHT22;11123;49.882;8.662;2022-08-19T00:52:20;21.40;99.90
21918;DHT22;11123;49.882;8.662;2022-08-19T00:54:50;21.40;99.90
21918;DHT22;11123;49.882;8.662;2022-08-19T00:57:23;21.40;99.90
21918;DHT22;11123;49.882;8.662;2022-08-19T00:59:56;21.30;99.90
21918;DHT22;11123;49.882;8.662;2022-08-19T01:02:31;21.30;99.90
21918;DHT22;11123;49.882;8.662;2022-08-19T01:05:02;21.40;99.90
21918;DHT22;11123;49.882;8.662;2022-08-19T01:07:32;21.40;99.90
21918;DHT22;11123;49.882;8.662;2022-08-19T01:10:05;21.40;99.90
21918;DHT22;11123;49.882;8.662;2022-08-19T01:12:34;21.40;99.90
21918;DHT22;11123;49.882;8.662;2022-08-19T01:15:06;21.40;99.90
21918;DHT22;11123;49.882;8.662;2022-08-19T01:17:38;21.40;99.90
21918;DHT22;11123;49.882;8.662;2022-08-19T01:20:10;21.40;99.90
21918;DHT22;11123;49.882;8.662;2022-08-19T01:22:44;21.40;99.90
21918;DHT22;11123;49.882;8.662;2022-08-19T01:25:13;21.40;99.90
21918;DHT22;11123;49.882;8.662;2022-08-19T01:27:44;21.40;98.20
21918;DHT22;11123;49.882;8.662;2022-08-19T01:30:17;21.30;99.70
21918;DHT22;11123;49.882;8.662;2022-08-19T01:32:46;21.30;99.90
21918;DHT22;11123;49.882;8.662;2022-08-19T01:35:14;21.30;99.90
21918;DHT22;11123;49.882;8.662;2022-08-19T01:37:49;21.30;99.90
21918;DHT22;11123;49.882;8.662;2022-08-19T01:40:21;21.30;99.90
21918;DHT22;11123;49.882;8.662;2022-08-19T01:42:51;21.30;99.90
21918;DHT22;11123;49.882;8.662;2022-08-19T01:45:22;21.30;99.90
21918;DHT22;11123;49.882;8.662;2022-08-19T01:47:50;21.30;99.90
21918;DHT22;11123;49.882;8.662;2022-08-19T01:50:29;21.20;99.90
21918;DHT22;11123;49.882;8.662;2022-08-19T01:53:01;21.20;99.90
21918;DHT22;11123;49.882;8.662;2022-08-19T01:55:35;21.20;99.90
21918;DHT22;11123;49.882;8.662;2022-08-19T01:58:11;21.30;99.90
21918;DHT22;11123;49.882;8.662;2022-08-19T02:00:40;21.30;97.90
21918;DHT22;11123;49.882;8.662;2022-08-19T02:03:09;21.30;97.20
21918;DHT22;11123;49.882;8.662;2022-08-19T02:05:39;21.30;92.10
21918;DHT22;11123;49.882;8.662;2022-08-19T02:08:10;21.40;85.80
21918;DHT22;11123;49.882;8.662;2022-08-19T02:10:39;21.40;84.10
21918;DHT22;11123;49.882;8.662;2022-08-19T02:13:10;21.40;83.10
21918;DHT22;11123;49.882;8.662;2022-08-19T02:15:38;21.40;83.80
21918;DHT22;11123;49.882;8.662;2022-08-19T02:18:07;21.40;89.70
21918;DHT22;11123;49.882;8.662;2022-08-19T02:20:36;21.40;80.40
21918;DHT22;11123;49.882;8.662;2022-08-19T02:23:05;21.40;80.90
21918;DHT22;11123;49.882;8.662;2022-08-19T02:25:47;21.40;81.40
21918;DHT22;11123;49.882;8.662;2022-08-19T02:28:15;21.40;80.40
21918;DHT22;11123;49.882;8.662;2022-08-19T02:30:46;21.40;90.40
21918;DHT22;11123;49.882;8.662;2022-08-19T02:33:15;21.30;93.80
21918;DHT22;11123;49.882;8.662;2022-08-19T02:35:43;21.30;93.70
21918;DHT22;11123;49.882;8.662;2022-08-19T02:38:14;21.30;87.90
21918;DHT22;11123;49.882;8.662;2022-08-19T02:40:57;21.30;91.10
21918;DHT22;11123;49.882;8.662;2022-08-19T02:43:27;21.30;91.90
21918;DHT22;11123;49.882;8.662;2022-08-19T02:46:01;21.30;86.90
21918;DHT22;11123;49.882;8.662;2022-08-19T02:48:31;21.20;88.10
21918;DHT22;11123;49.882;8.662;2022-08-19T02:50:59;21.20;95.60
21918;DHT22;11123;49.882;8.662;2022-08-19T02:53:28;21.20;96.80
21918;DHT22;11123;49.882;8.662;2022-08-19T02:55:58;21.10;99.80
21918;DHT22;11123;49.882;8.662;2022-08-19T02:58:26;21.10;99.90
21918;DHT22;11123;49.882;8.662;2022-08-19T03:00:55;21.10;98.70
21918;DHT22;11123;49.882;8.662;2022-08-19T03:03:24;21.10;95.50
21918;DHT22;11123;49.882;8.662;2022-08-19T03:06:07;21.20;91.80
21918;DHT22;11123;49.882;8.662;2022-08-19T03:08:38;21.20;88.00
21918;DHT22;11123;49.882;8.662;2022-08-19T03:11:13;21.20;93.40
21918;DHT22;11123;49.882;8.662;2022-08-19T03:13:42;21.10;96.20
21918;DHT22;11123;49.882;8.662;2022-08-19T03:16:10;21.10;97.40
21918;DHT22;11123;49.882;8.662;2022-08-19T03:18:38;21.10;99.90
21918;DHT22;11123;49.882;8.662;2022-08-19T03:21:07;21.10;98.40
21918;DHT22;11123;49.882;8.662;2022-08-19T03:23:38;21.00;99.90
21918;DHT22;11123;49.882;8.662;2022-08-19T03:26:08;21.00;99.90
21918;DHT22;11123;49.882;8.662;2022-08-19T03:28:43;21.00;91.20
21918;DHT22;11123;49.882;8.662;2022-08-19T03:31:19;21.10;89.40
21918;DHT22;11123;49.882;8.662;2022-08-19T03:34:08;21.10;86.30
21918;DHT22;11123;49.882;8.662;2022-08-19T03:36:39;21.10;77.00
21918;DHT22;11123;49.882;8.662;2022-08-19T03:39:09;21.10;76.40
21918;DHT22;11123;49.882;8.662;2022-08-19T03:41:41;21.00;77.00
21918;DHT22;11123;49.882;8.662;2022-08-19T03:44:12;21.00;77.80
21918;DHT22;11123;49.882;8.662;2022-08-19T03:46:45;21.10;91.30
21918;DHT22;11123;49.882;8.662;2022-08-19T03:49:14;21.10;91.80
21918;DHT22;11123;49.882;8.662;2022-08-19T03:51:46;21.10;77.30
21918;DHT22;11123;49.882;8.662;2022-08-19T03:54:17;21.10;77.20
21918;DHT22;11123;49.882;8.662;2022-08-19T03:56:48;21.10;77.40
21918;DHT22;11123;49.882;8.662;2022-08-19T03:59:21;21.10;75.50
21918;DHT22;11123;49.882;8.662;2022-08-19T04:01:53;21.20;82.30
21918;DHT22;11123;49.882;8.662;2022-08-19T04:04:22;21.10;83.50
21918;DHT22;11123;49.882;8.662;2022-08-19T04:06:55;21.20;75.40
21918;DHT22;11123;49.882;8.662;2022-08-19T04:09:24;21.20;70.70
21918;DHT22;11123;49.882;8.662;2022-08-19T04:11:55;21.10;70.90
21918;DHT22;11123;49.882;8.662;2022-08-19T04:14:26;21.10;72.90
21918;DHT22;11123;49.882;8.662;2022-08-19T04:16:57;21.20;75.90
21918;DHT22;11123;49.882;8.662;2022-08-19T04:19:26;21.20;76.80
21918;DHT22;11123;49.882;8.662;2022-08-19T04:21:54;21.20;80.30
21918;DHT22;11123;49.882;8.662;2022-08-19T04:24:23;21.20;79.80
21918;DHT22;11123;49.882;8.662;2022-08-19T04:26:51;21.20;80.80
21918;DHT22;11123;49.882;8.662;2022-08-19T04:29:23;21.10;74.60
21918;DHT22;11123;49.882;8.662;2022-08-19T04:31:53;21.20;74.70
21918;DHT22;11123;49.882;8.662;2022-08-19T04:34:24;21.10;71.80
21918;DHT22;11123;49.882;8.662;2022-08-19T04:36:56;21.10;76.30
21918;DHT22;11123;49.882;8.662;2022-08-19T04:39:27;21.10;89.50
21918;DHT22;11123;49.882;8.662;2022-08-19T04:42:17;21.00;95.00
21918;DHT22;11123;49.882;8.662;2022-08-19T04:45:06;21.00;95.00
21918;DHT22;11123;49.882;8.662;2022-08-19T04:47:39;21.00;97.30
21918;DHT22;11123;49.882;8.662;2022-08-19T04:50:24;21.00;99.90
21918;DHT22;11123;49.882;8.662;2022-08-19T04:52:53;20.90;99.90
21918;DHT22;11123;49.882;8.662;2022-08-19T04:55:23;20.90;98.30
21918;DHT22;11123;49.882;8.662;2022-08-19T04:57:52;20.90;95.30
21918;DHT22;11123;49.882;8.662;2022-08-19T05:00:22;20.90;95.90
21918;DHT22;11123;49.882;8.662;2022-08-19T05:02:51;20.90;98.50
21918;DHT22;11123;49.882;8.662;2022-08-19T05:05:19;20.90;99.80
21918;DHT22;11123;49.882;8.662;2022-08-19T05:07:48;20.90;99.90
21918;DHT22;11123;49.882;8.662;2022-08-19T05:10:16;20.90;99.90
21918;DHT22;11123;49.882;8.662;2022-08-19T05:12:44;20.90;99.60
21918;DHT22;11123;49.882;8.662;2022-08-19T05:15:13;20.90;97.60
21918;DHT22;11123;49.882;8.662;2022-08-19T05:17:42;20.90;98.00
21918;DHT22;11123;49.882;8.662;2022-08-19T05:20:31;20.90;99.90
21918;DHT22;11123;49.882;8.662;2022-08-19T05:23:16;20.90;99.90
21918;DHT22;11123;49.882;8.662;2022-08-19T05:25:49;21.00;99.90
21918;DHT22;11123;49.882;8.662;2022-08-19T05:28:18;21.00;94.10
21918;DHT22;11123;49.882;8.662;2022-08-19T05:30:47;21.00;93.00
21918;DHT22;11123;49.882;8.662;2022-08-19T05:33:19;20.90;94.30
21918;DHT22;11123;49.882;8.662;2022-08-19T05:35:47;21.00;95.60
21918;DHT22;11123;49.882;8.662;2022-08-19T05:38:17;21.00;94.70
21918;DHT22;11123;49.882;8.662;2022-08-19T05:40:45;21.00;96.40
21918;DHT22;11123;49.882;8.662;2022-08-19T05:43:14;21.00;98.00
21918;DHT22;11123;49.882;8.662;2022-08-19T05:45:43;21.00;97.20
21918;DHT22;11123;49.882;8.662;2022-08-19T05:48:12;21.00;97.60
21918;DHT22;11123;49.882;8.662;2022-08-19T05:50:42;21.10;93.20
21918;DHT22;11123;49.882;8.662;2022-08-19T05:53:11;21.00;95.80
21918;DHT22;11123;49.882;8.662;2022-08-19T05:55:39;21.00;93.10
21918;DHT22;11123;49.882;8.662;2022-08-19T05:58:07;21.00;93.40
21918;DHT22;11123;49.882;8.662;2022-08-19T06:00:36;21.00;95.90
21918;DHT22;11123;49.882;8.662;2022-08-19T06:03:05;21.00;92.80
21918;DHT22;11123;49.882;8.662;2022-08-19T06:05:41;21.00;92.60
21918;DHT22;11123;49.882;8.662;2022-08-19T06:08:19;21.00;93.80
21918;DHT22;11123;49.882;8.662;2022-08-19T06:11:15;21.10;93.60
21918;DHT22;11123;49.882;8.662;2022-08-19T06:13:44;21.10;93.90
21918;DHT22;11123;49.882;8.662;2022-08-19T06:16:14;21.10;91.20
21918;DHT22;11123;49.882;8.662;2022-08-19T06:18:46;21.20;92.80
21918;DHT22;11123;49.882;8.662;2022-08-19T06:21:16;21.20;91.10
21918;DHT22;11123;49.882;8.662;2022-08-19T06:23:46;21.30;90.50
21918;DHT22;11123;49.882;8.662;2022-08-19T06:26:15;21.40;85.50
21918;DHT22;11123;49.882;8.662;2022-08-19T06:28:44;21.40;76.60
21918;DHT22;11123;49.882;8.662;2022-08-19T06:31:13;21.50;76.60
21918;DHT22;11123;49.882;8.662;2022-08-19T06:33:43;21.50;70.60
21918;DHT22;11123;49.882;8.662;2022-08-19T06:36:22;21.50;69.70
21918;DHT22;11123;49.882;8.662;2022-08-19T06:38:54;21.60;69.70
21918;DHT22;11123;49.882;8.662;2022-08-19T06:41:23;21.60;69.10
21918;DHT22;11123;49.882;8.662;2022-08-19T06:43:52;21.70;63.00
21918;DHT22;11123;49.882;8.662;2022-08-19T06:46:22;21.70;63.80
21918;DHT22;11123;49.882;8.662;2022-08-19T06:48:51;21.70;64.40
21918;DHT22;11123;49.882;8.662;2022-08-19T06:51:22;21.80;60.50
21918;DHT22;11123;49.882;8.662;2022-08-19T06:53:55;21.80;60.80
21918;DHT22;11123;49.882;8.662;2022-08-19T06:56:26;21.90;60.50
21918;DHT22;11123;49.882;8.662;2022-08-19T06:58:58;22.00;58.90
21918;DHT22;11123;49.882;8.662;2022-08-19T07:01:26;22.00;52.40
21918;DHT22;11123;49.882;8.662;2022-08-19T07:03:55;22.10;51.50
21918;DHT22;11123;49.882;8.662;2022-08-19T07:06:26;22.10;44.80
21918;DHT22;11123;49.882;8.662;2022-08-19T07:09:13;22.10;47.40
21918;DHT22;11123;49.882;8.662;2022-08-19T07:11:46;22.20;53.00
21918;DHT22;11123;49.882;8.662;2022-08-19T07:14:16;22.20;42.40
21918;DHT22;11123;49.882;8.662;2022-08-19T07:16:47;22.20;47.80
21918;DHT22;11123;49.882;8.662;2022-08-19T07:19:17;22.20;47.80
21918;DHT22;11123;49.882;8.662;2022-08-19T07:21:49;22.20;41.10
21918;DHT22;11123;49.882;8.662;2022-08-19T07:24:20;22.20;44.20
21918;DHT22;11123;49.882;8.662;2022-08-19T07:26:52;22.30;47.40
21918;DHT22;11123;49.882;8.662;2022-08-19T07:29:21;22.40;41.50
21918;DHT22;11123;49.882;8.662;2022-08-19T07:31:55;22.40;40.00
21918;DHT22;11123;49.882;8.662;2022-08-19T07:34:28;22.50;37.90
21918;DHT22;11123;49.882;8.662;2022-08-19T07:36:58;22.60;34.30
21918;DHT22;11123;49.882;8.662;2022-08-19T07:39:30;22.70;26.60
21918;DHT22;11123;49.882;8.662;2022-08-19T07:42:01;22.70;25.90
21918;DHT22;11123;49.882;8.662;2022-08-19T07:44:30;22.80;25.40
21918;DHT22;11123;49.882;8.662;2022-08-19T07:46:58;22.90;19.60
21918;DHT22;11123;49.882;8.662;2022-08-19T07:49:27;22.90;14.20
21918;DHT22;11123;49.882;8.662;2022-08-19T07:51:58;22.90;15.00
21918;DHT22;11123;49.882;8.662;2022-08-19T07:54:30;23.10;8.90
21918;DHT22;11123;49.882;8.662;2022-08-19T07:57:02;23.10;6.70
21918;DHT22;11123;49.882;8.662;2022-08-19T07:59:31;23.20;8.30
21918;DHT22;11123;49.882;8.662;2022-08-19T08:01:59;23.30;5.50
21918;DHT22;11123;49.882;8.662;2022-08-19T08:04:30;23.40;3.00
21918;DHT22;11123;49.882;8.662;2022-08-19T08:07:17;23.50;1.00
21918;DHT22;11123;49.882;8.662;2022-08-19T08:10:04;23.60;1.00
21918;DHT22;11123;49.882;8.662;2022-08-19T08:12:47;23.60;1.00
21918;DHT22;11123;49.882;8.662;2022-08-19T08:15:36;23.60;1.00
21918;DHT22;11123;49.882;8.662;2022-08-19T08:18:10;23.70;1.00
21918;DHT22;11123;49.882;8.662;2022-08-19T08:20:38;23.50;1.00
21918;DHT22;11123;49.882;8.662;2022-08-19T08:23:08;23.60;1.00
21918;DHT22;11123;49.882;8.662;2022-08-19T08:25:53;23.60;1.00
21918;DHT22;11123;49.882;8.662;2022-08-19T08:28:24;23.60;1.00
21918;DHT22;11123;49.882;8.662;2022-08-19T08:30:56;23.60;1.00
21918;DHT22;11123;49.882;8.662;2022-08-19T08:33:27;23.70;1.00
21918;DHT22;11123;49.882;8.662;2022-08-19T08:36:01;23.80;1.00
21918;DHT22;11123;49.882;8.662;2022-08-19T08:38:32;23.80;1.00
21918;DHT22;11123;49.882;8.662;2022-08-19T08:41:11;23.80;1.00
21918;DHT22;11123;49.882;8.662;2022-08-19T08:43:48;23.90;1.00
21918;DHT22;11123;49.882;8.662;2022-08-19T08:46:21;24.00;1.00
21918;DHT22;11123;49.882;8.662;2022-08-19T08:49:02;24.00;1.00
21918;DHT22;11123;49.882;8.662;2022-08-19T08:51:34;24.10;1.00
21918;DHT22;11123;49.882;8.662;2022-08-19T08:54:07;24.30;1.00
21918;DHT22;11123;49.882;8.662;2022-08-19T08:56:38;24.30;1.00
21918;DHT22;11123;49.882;8.662;2022-08-19T08:59:12;24.30;1.00
21918;DHT22;11123;49.882;8.662;2022-08-19T09:01:43;24.30;1.00
21918;DHT22;11123;49.882;8.662;2022-08-19T09:04:12;24.40;1.00
21918;DHT22;11123;49.882;8.662;2022-08-19T09:06:47;24.40;1.00
21918;DHT22;11123;49.882;8.662;2022-08-19T09:09:23;24.50;1.00
21918;DHT22;11123;49.882;8.662;2022-08-19T09:12:05;24.50;1.00
21918;DHT22;11123;49.882;8.662;2022-08-19T09:14:44;24.70;1.00
21918;DHT22;11123;49.882;8.662;2022-08-19T09:17:19;24.90;1.00
21918;DHT22;11123;49.882;8.662;2022-08-19T09:19:53;25.00;1.00
21918;DHT22;11123;49.882;8.662;2022-08-19T09:22:22;25.10;1.00
21918;DHT22;11123;49.882;8.662;2022-08-19T09:24:55;25.20;1.00
21918;DHT22;11123;49.882;8.662;2022-08-19T09:27:25;25.20;1.00
21918;DHT22;11123;49.882;8.662;2022-08-19T09:30:12;25.10;1.00
21918;DHT22;11123;49.882;8.662;2022-08-19T09:32:41;25.00;1.00
21918;DHT22;11123;49.882;8.662;2022-08-19T09:35:10;24.90;1.00
21918;DHT22;11123;49.882;8.662;2022-08-19T09:37:39;24.80;1.00
21918;DHT22;11123;49.882;8.662;2022-08-19T09:40:13;24.80;1.00
21918;DHT22;11123;49.882;8.662;2022-08-19T09:42:42;24.70;1.00
21918;DHT22;11123;49.882;8.662;2022-08-19T09:45:18;24.70;1.00
21918;DHT22;11123;49.882;8.662;2022-08-19T09:47:47;24.70;1.00
21918;DHT22;11123;49.882;8.662;2022-08-19T09:50:16;24.70;1.00
21918;DHT22;11123;49.882;8.662;2022-08-19T09:52:45;24.90;1.00
21918;DHT22;11123;49.882;8.662;2022-08-19T09:55:25;24.90;1.00
21918;DHT22;11123;49.882;8.662;2022-08-19T09:58:02;25.00;1.00
21918;DHT22;11123;49.882;8.662;2022-08-19T10:00:30;25.10;1.00
21918;DHT22;11123;49.882;8.662;2022-08-19T10:02:59;25.20;1.00
21918;DHT22;11123;49.882;8.662;2022-08-19T10:05:29;25.30;1.00
21918;DHT22;11123;49.882;8.662;2022-08-19T10:08:17;25.40;1.00
21918;DHT22;11123;49.882;8.662;2022-08-19T10:10:48;25.60;1.00
21918;DHT22;11123;49.882;8.662;2022-08-19T10:13:20;25.70;1.00
21918;DHT22;11123;49.882;8.662;2022-08-19T10:15:51;25.70;1.00
21918;DHT22;11123;49.882;8.662;2022-08-19T10:18:22;25.70;1.00
21918;DHT22;11123;49.882;8.662;2022-08-19T10:21:01;25.60;1.00
21918;DHT22;11123;49.882;8.662;2022-08-19T10:23:30;25.60;1.00
21918;DHT22;11123;49.882;8.662;2022-08-19T10:26:01;25.40;1.00
21918;DHT22;11123;49.882;8.662;2022-08-19T10:28:30;25.40;1.00
21918;DHT22;11123;49.882;8.662;2022-08-19T10:31:02;25.30;1.00
21918;DHT22;11123;49.882;8.662;2022-08-19T10:33:31;25.30;1.00
21918;DHT22;11123;49.882;8.662;2022-08-19T10:36:20;25.30;1.00
21918;DHT22;11123;49.882;8.662;2022-08-19T10:38:52;25.50;1.00
21918;DHT22;11123;49.882;8.662;2022-08-19T10:41:28;25.50;1.00
21918;DHT22;11123;49.882;8.662;2022-08-19T10:44:00;25.60;1.00
21918;DHT22;11123;49.882;8.662;2022-08-19T10:46:31;25.60;1.00
21918;DHT22;11123;49.882;8.662;2022-08-19T10:49:01;25.60;1.00
21918;DHT22;11123;49.882;8.662;2022-08-19T10:51:30;25.60;1.00
21918;DHT22;11123;49.882;8.662;2022-08-19T10:54:16;25.80;1.00
21918;DHT22;11123;49.882;8.662;2022-08-19T10:56:58;26.10;1.00
21918;DHT22;11123;49.882;8.662;2022-08-19T10:59:27;26.20;1.00
21918;DHT22;11123;49.882;8.662;2022-08-19T11:02:04;26.40;1.00
21918;DHT22;11123;49.882;8.662;2022-08-19T11:04:32;26.40;1.00
21918;DHT22;11123;49.882;8.662;2022-08-19T11:07:01;26.20;1.00
21918;DHT22;11123;49.882;8.662;2022-08-19T11:09:30;26.30;1.00
21918;DHT22;11123;49.882;8.662;2022-08-19T11:12:02;26.50;1.00
21918;DHT22;11123;49.882;8.662;2022-08-19T11:14:31;26.70;1.00
21918;DHT22;11123;49.882;8.662;2022-08-19T11:17:01;26.80;1.00
21918;DHT22;11123;49.882;8.662;2022-08-19T11:19:30;27.10;1.00
21918;DHT22;11123;49.882;8.662;2022-08-19T11:21:58;27.80;1.00
21918;DHT22;11123;49.882;8.662;2022-08-19T11:24:30;28.50;1.00
21918;DHT22;11123;49.882;8.662;2022-08-19T11:27:06;29.00;99.90
21918;DHT22;11123;49.882;8.662;2022-08-19T11:29:37;29.40;99.90
21918;DHT22;11123;49.882;8.662;2022-08-19T11:32:08;29.70;99.90
21918;DHT22;11123;49.882;8.662;2022-08-19T11:34:37;29.60;99.90
21918;DHT22;11123;49.882;8.662;2022-08-19T11:37:06;29.40;99.90
21918;DHT22;11123;49.882;8.662;2022-08-19T11:39:36;28.80;99.90
21918;DHT22;11123;49.882;8.662;2022-08-19T11:42:07;28.10;99.90
21918;DHT22;11123;49.882;8.662;2022-08-19T11:44:49;27.80;99.90
21918;DHT22;11123;49.882;8.662;2022-08-19T11:47:18;28.80;99.90
21918;DHT22;11123;49.882;8.662;2022-08-19T11:49:46;29.60;99.90
21918;DHT22;11123;49.882;8.662;2022-08-19T11:52:15;30.10;29.00
21918;DHT22;11123;49.882;8.662;2022-08-19T11:54:43;29.40;25.60
21918;DHT22;11123;49.882;8.662;2022-08-19T11:57:12;29.10;88.00
21918;DHT22;11123;49.882;8.662;2022-08-19T11:59:48;29.20;90.50
21918;DHT22;11123;49.882;8.662;2022-08-19T12:02:16;28.70;74.70
21918;DHT22;11123;49.882;8.662;2022-08-19T12:04:45;28.60;99.90
21918;DHT22;11123;49.882;8.662;2022-08-19T12:07:14;28.80;99.90
21918;DHT22;11123;49.882;8.662;2022-08-19T12:09:42;28.20;99.90
21918;DHT22;11123;49.882;8.662;2022-08-19T12:12:15;28.30;99.90
21918;DHT22;11123;49.882;8.662;2022-08-19T12:14:43;28.90;99.90
21918;DHT22;11123;49.882;8.662;2022-08-19T12:17:13;29.20;92.00
21918;DHT22;11123;49.882;8.662;2022-08-19T12:19:42;29.20;38.10
21918;DHT22;11123;49.882;8.662;2022-08-19T12:22:10;29.10;5.00
21918;DHT22;11123;49.882;8.662;2022-08-19T12:24:39;29.20;1.00
21918;DHT22;11123;49.882;8.662;2022-08-19T12:27:07;29.00;1.00
21918;DHT22;11123;49.882;8.662;2022-08-19T12:29:40;28.80;1.00
21918;DHT22;11123;49.882;8.662;2022-08-19T12:32:08;28.70;1.00
21918;DHT22;11123;49.882;8.662;2022-08-19T12:34:38;28.60;1.00
21918;DHT22;11123;49.882;8.662;2022-08-19T12:37:07;28.80;1.00
21918;DHT22;11123;49.882;8.662;2022-08-19T12:39:38;29.10;1.00
21918;DHT22;11123;49.882;8.662;2022-08-19T12:42:09;29.40;1.00
21918;DHT22;11123;49.882;8.662;2022-08-19T12:44:38;29.60;1.00
21918;DHT22;11123;49.882;8.662;2022-08-19T12:47:11;30.00;1.00
21918;DHT22;11123;49.882;8.662;2022-08-19T12:49:41;29.90;1.00
21918;DHT22;11123;49.882;8.662;2022-08-19T12:52:23;30.00;1.00
21918;DHT22;11123;49.882;8.662;2022-08-19T12:54:51;30.20;99.90
21918;DHT22;11123;49.882;8.662;2022-08-19T12:57:22;30.30;99.90
21918;DHT22;11123;49.882;8.662;2022-08-19T13:00:00;30.60;99.90
21918;DHT22;11123;49.882;8.662;2022-08-19T13:02:32;30.60;99.90
21918;DHT22;11123;49.882;8.662;2022-08-19T13:05:07;30.10;99.90
21918;DHT22;11123;49.882;8.662;2022-08-19T13:07:37;30.10;99.90
21918;DHT22;11123;49.882;8.662;2022-08-19T13:10:08;30.20;99.90
21918;DHT22;11123;49.882;8.662;2022-08-19T13:12:39;30.20;99.90
21918;DHT22;11123;49.882;8.662;2022-08-19T13:15:08;30.30;99.90
21918;DHT22;11123;49.882;8.662;2022-08-19T13:17:39;30.60;99.90
21918;DHT22;11123;49.882;8.662;2022-08-19T13:20:10;31.10;99.90
21918;DHT22;11123;49.882;8.662;2022-08-19T13:22:38;30.90;99.90
21918;DHT22;11123;49.882;8.662;2022-08-19T13:25:08;30.80;99.90
21918;DHT22;11123;49.882;8.662;2022-08-19T13:27:37;30.50;99.90
21918;DHT22;11123;49.882;8.662;2022-08-19T13:30:08;30.30;99.90
21918;DHT22;11123;49.882;8.662;2022-08-19T13:32:56;29.80;99.90
21918;DHT22;11123;49.882;8.662;2022-08-19T13:35:45;29.20;99.90
21918;DHT22;11123;49.882;8.662;2022-08-19T13:38:16;29.30;99.90
21918;DHT22;11123;49.882;8.662;2022-08-19T13:40:44;29.30;99.90
21918;DHT22;11123;49.882;8.662;2022-08-19T13:43:13;29.10;99.90
21918;DHT22;11123;49.882;8.662;2022-08-19T13:45:50;29.00;99.90
21918;DHT22;11123;49.882;8.662;2022-08-19T13:48:22;29.50;99.90
21918;DHT22;11123;49.882;8.662;2022-08-19T13:50:51;29.80;99.90
21918;DHT22;11123;49.882;8.662;2022-08-19T13:53:19;30.30;99.90
21918;DHT22;11123;49.882;8.662;2022-08-19T13:55:47;30.50;99.90
21918;DHT22;11123;49.882;8.662;2022-08-19T13:58:17;30.60;99.90
21918;DHT22;11123;49.882;8.662;2022-08-19T14:00:46;30.40;99.90
21918;DHT22;11123;49.882;8.662;2022-08-19T14:03:15;30.10;99.90
21918;DHT22;11123;49.882;8.662;2022-08-19T14:05:44;29.70;99.90
21918;DHT22;11123;49.882;8.662;2022-08-19T14:08:13;29.40;99.90
21918;DHT22;11123;49.882;8.662;2022-08-19T14:10:42;29.60;99.90
21918;DHT22;11123;49.882;8.662;2022-08-19T14:13:13;30.00;99.90
21918;DHT22;11123;49.882;8.662;2022-08-19T14:15:42;30.40;99.90
21918;DHT22;11123;49.882;8.662;2022-08-19T14:18:11;30.50;92.60
21918;DHT22;11123;49.882;8.662;2022-08-19T14:20:40;30.40;93.80
21918;DHT22;11123;49.882;8.662;2022-08-19T14:23:09;30.10;90.70
21918;DHT22;11123;49.882;8.662;2022-08-19T14:25:39;29.70;99.60
21918;DHT22;11123;49.882;8.662;2022-08-19T14:28:07;29.70;99.90
21918;DHT22;11123;49.882;8.662;2022-08-19T14:30:37;30.30;99.90
21918;DHT22;11123;49.882;8.662;2022-08-19T14:33:05;31.10;95.50
21918;DHT22;11123;49.882;8.662;2022-08-19T14:35:35;31.20;12.80
21918;DHT22;11123;49.882;8.662;2022-08-19T14:38:04;31.10;1.00
21918;DHT22;11123;49.882;8.662;2022-08-19T14:40:34;30.90;1.00
21918;DHT22;11123;49.882;8.662;2022-08-19T14:43:04;30.60;1.00
21918;DHT22;11123;49.882;8.662;2022-08-19T14:45:34;30.30;1.00
21918;DHT22;11123;49.882;8.662;2022-08-19T14:48:04;30.20;1.00
21918;DHT22;11123;49.882;8.662;2022-08-19T14:50:32;29.80;1.00
21918;DHT22;11123;49.882;8.662;2022-08-19T14:53:03;29.60;1.00
21918;DHT22;11123;49.882;8.662;2022-08-19T14:55:43;29.40;1.00
21918;DHT22;11123;49.882;8.662;2022-08-19T14:58:11;29.50;1.00
21918;DHT22;11123;49.882;8.662;2022-08-19T15:00:57;29.50;1.00
21918;DHT22;11123;49.882;8.662;2022-08-19T15:03:26;29.50;1.00
21918;DHT22;11123;49.882;8.662;2022-08-19T15:05:54;29.20;1.00
21918;DHT22;11123;49.882;8.662;2022-08-19T15:08:25;29.30;1.00
21918;DHT22;11123;49.882;8.662;2022-08-19T15:10:55;29.30;1.00
21918;DHT22;11123;49.882;8.662;2022-08-19T15:13:24;29.20;1.00
21918;DHT22;11123;49.882;8.662;2022-08-19T15:15:53;29.10;1.00
21918;DHT22;11123;49.882;8.662;2022-08-19T15:18:22;29.20;1.00
21918;DHT22;11123;49.882;8.662;2022-08-19T15:20:50;29.30;1.00
21918;DHT22;11123;49.882;8.662;2022-08-19T15:23:19;29.20;1.00
21918;DHT22;11123;49.882;8.662;2022-08-19T15:25:49;29.20;1.00
21918;DHT22;11123;49.882;8.662;2022-08-19T15:28:21;29.20;1.00
21918;DHT22;11123;49.882;8.662;2022-08-19T15:30:49;29.20;1.00
21918;DHT22;11123;49.882;8.662;2022-08-19T15:33:18;29.30;1.00
21918;DHT22;11123;49.882;8.662;2022-08-19T15:35:47;29.30;1.00
21918;DHT22;11123;49.882;8.662;2022-08-19T15:38:17;29.40;1.00
21918;DHT22;11123;49.882;8.662;2022-08-19T15:40:49;29.50;1.00
21918;DHT22;11123;49.882;8.662;2022-08-19T15:43:18;29.40;1.00
21918;DHT22;11123;49.882;8.662;2022-08-19T15:45:49;29.30;1.00
21918;DHT22;11123;49.882;8.662;2022-08-19T15:48:17;29.20;1.00
21918;DHT22;11123;49.882;8.662;2022-08-19T15:50:45;29.10;1.00
21918;DHT22;11123;49.882;8.662;2022-08-19T15:53:14;29.10;1.00
21918;DHT22;11123;49.882;8.662;2022-08-19T15:55:44;29.10;1.00
21918;DHT22;11123;49.882;8.662;2022-08-19T15:58:14;29.10;1.00
21918;DHT22;11123;49.882;8.662;2022-08-19T16:01:05;29.00;1.00
21918;DHT22;11123;49.882;8.662;2022-08-19T16:03:54;29.00;1.00